Time;durP1;ratioP1;P1;durP2;ratioP2;P2;SDS_P1;SDS_P2;PMS_P1;PMS_P2;Temp;Humidity;BMP_temperature;BMP_pressure;BME280_temperature;BME280_humidity;BME280_pressure;Samples;Min_cycle;Max_cycle;Signal;HPM_P1;HPM_P2
2023/07/12 00:01:48;;;;;;;;;;;;;;;;;;5063605;28;19969;-73
2023/07/12 00:04:14;;;;;;;;;;;;;;;;;;5063416;28;19932;-73
2023/07/12 00:06:40;;;;;;;;;;;;;;;;;;5061793;28;19936;-71
2023/07/12 00:09:06;;;;;;;;;;;;;;;;;;5060929;28;19932;-72
2023/07/12 00:11:32;;;;;;;;;;;;;;;;;;5062802;28;19927;-71
2023/07/12 00:13:58;;;;;;;;;;;;;;;;;;5062639;28;19940;-71
2023/07/12 00:16:23;;;;;;;;;;;;;;;;;;5062964;28;19979;-71
2023/07/12 00:18:49;;;;;;;;;;;;;;;;;;5064435;28;19968;-72
2023/07/12 00:21:15;;;;;;;;;;;;;;;;;;5065647;28;19978;-71
2023/07/12 00:23:41;;;;;;;;;;;;;;;;;;5066216;28;19928;-71
2023/07/12 00:26:07;;;;;;;;;;;;;;;;;;5066170;28;19976;-72
2023/07/12 00:28:33;;;;;;;;;;;;;;;;;;5066791;28;19924;-72
2023/07/12 00:30:59;;;;;;;;;;;;;;;;;;5066809;28;19971;-71
2023/07/12 00:33:25;;;;;;;;;;;;;;;;;;5066279;28;19964;-73
2023/07/12 00:35:51;;;;;;;;;;;;;;;;;;5065851;28;19979;-69
2023/07/12 00:38:17;;;;;;;;;;;;;;;;;;5066260;28;19972;-71
2023/07/12 00:40:43;;;;;;;;;;;;;;;;;;5061630;28;19931;-72
2023/07/12 00:43:09;;;;;;;;;;;;;;;;;;5066184;28;20384;-71
2023/07/12 00:45:35;;;;;;;;;;;;;;;;;;5065566;28;19932;-71
2023/07/12 00:48:01;;;;;;;;;;;;;;;;;;5066614;28;20458;-70
2023/07/12 00:50:27;;;;;;;;;;;;;;;;;;5066313;28;19925;-71
2023/07/12 00:52:53;;;;;;;;;;;;;;;;;;5063586;28;19968;-71
2023/07/12 00:55:19;;;;;;;;;;;;;;;;;;5066840;28;20006;-72
2023/07/12 00:57:45;;;;;;;;;;;;;;;;;;5065548;28;19924;-71
2023/07/12 01:00:10;;;;;;;;;;;;;;;;;;5066492;28;20354;-72
2023/07/12 01:02:36;;;;;;;;;;;;;;;;;;5066415;28;19929;-72
2023/07/12 01:05:03;;;;;;;;;;;;;;;;;;5065260;28;20352;-71
2023/07/12 01:07:29;;;;;;;;;;;;;;;;;;5064717;28;19935;-72
2023/07/12 01:09:55;;;;;;;;;;;;;;;;;;5066118;28;19986;-72
2023/07/12 01:12:21;;;;;;;;;;;;;;;;;;5147413;22;19982;-64
2023/07/12 01:14:47;;;;;;;;;;;;;;;;;;5052296;28;19976;-64
2023/07/12 01:17:13;;;;;;;;;;;;;;;;;;5051085;28;20003;-64
2023/07/12 01:19:39;;;;;;;;;;;;;;;;;;5059974;28;19925;-63
2023/07/12 01:22:05;;;;;;;;;;;;;;;;;;5053848;28;20010;-63
2023/07/12 01:24:31;;;;;;;;;;;;;;;;;;5065494;28;19928;-63
2023/07/12 01:26:57;;;;;;;;;;;;;;;;;;5065795;28;19968;-63
2023/07/12 01:29:23;;;;;;;;;;;;;;;;;;5064709;28;20033;-63
2023/07/12 01:31:49;;;;;;;;;;;;;;;;;;5065219;28;19924;-63
2023/07/12 01:34:15;;;;;;;;;;;;;;;;;;5064933;28;20266;-63
2023/07/12 01:36:41;;;;;;;;;;;;;;;;;;5064235;28;19924;-63
2023/07/12 01:39:07;;;;;;;;;;;;;;;;;;5047253;28;19925;-63
2023/07/12 01:41:33;;;;;;;;;;;;;;;;;;5063607;28;19928;-63
2023/07/12 01:43:59;;;;;;;;;;;;;;;;;;5065769;28;19970;-63
2023/07/12 01:46:25;;;;;;;;;;;;;;;;;;5064484;28;19925;-64
2023/07/12 01:48:50;;;;;;;;;;;;;;;;;;5065579;28;19931;-64
2023/07/12 01:51:16;;;;;;;;;;;;;;;;;;5064256;28;20023;-64
2023/07/12 01:53:42;;;;;;;;;;;;;;;;;;5064013;28;19997;-64
2023/07/12 01:56:08;;;;;;;;;;;;;;;;;;5064845;28;19924;-64
2023/07/12 01:58:34;;;;;;;;;;;;;;;;;;5065135;28;19930;-64
2023/07/12 02:01:00;;;;;;;;;;;;;;;;;;5064691;28;19928;-63
2023/07/12 02:03:26;;;;;;;;;;;;;;;;;;5065193;28;20001;-64
2023/07/12 02:05:52;;;;;;;;;;;;;;;;;;5063830;28;19982;-64
2023/07/12 02:08:18;;;;;;;;;;;;;;;;;;5047162;28;19968;-64
2023/07/12 02:10:44;;;;;;;;;;;;;;;;;;5064524;28;20451;-64
2023/07/12 02:13:10;;;;;;;;;;;;;;;;;;5064326;28;20015;-64
2023/07/12 02:15:36;;;;;;;;;;;;;;;;;;5064567;28;19929;-64
2023/07/12 02:18:02;;;;;;;;;;;;;;;;;;5064665;28;20001;-63
2023/07/12 02:20:28;;;;;;;;;;;;;;;;;;5063499;28;19932;-63
2023/07/12 02:22:54;;;;;;;;;;;;;;;;;;5063477;28;19932;-63
2023/07/12 02:25:20;;;;;;;;;;;;;;;;;;5064509;28;20055;-63
2023/07/12 02:27:46;;;;;;;;;;;;;;;;;;5064500;28;20051;-63
2023/07/12 02:30:12;;;;;;;;;;;;;;;;;;5064329;28;20019;-63
2023/07/12 02:32:38;;;;;;;;;;;;;;;;;;5064176;28;20011;-63
2023/07/12 02:35:04;;;;;;;;;;;;;;;;;;5063531;28;20007;-63
2023/07/12 02:37:30;;;;;;;;;;;;;;;;;;5063297;28;19977;-63
2023/07/12 02:39:55;;;;;;;;;;;;;;;;;;5064314;28;19924;-63
2023/07/12 02:42:21;;;;;;;;;;;;;;;;;;5062914;28;19928;-63
2023/07/12 02:44:47;;;;;;;;;;;;;;;;;;5046509;28;19925;-63
2023/07/12 02:47:13;;;;;;;;;;;;;;;;;;5061899;28;19928;-63
2023/07/12 02:49:39;;;;;;;;;;;;;;;;;;5063143;28;19924;-63
2023/07/12 02:52:05;;;;;;;;;;;;;;;;;;5063090;28;19997;-63
2023/07/12 02:54:31;;;;;;;;;;;;;;;;;;5063744;28;20389;-63
2023/07/12 02:56:57;;;;;;;;;;;;;;;;;;5063977;28;20433;-63
2023/07/12 02:59:23;;;;;;;;;;;;;;;;;;5063480;28;20301;-64
2023/07/12 03:01:49;;;;;;;;;;;;;;;;;;5063979;28;19925;-63
2023/07/12 03:04:15;;;;;;;;;;;;;;;;;;5062570;28;19993;-63
2023/07/12 03:06:41;;;;;;;;;;;;;;;;;;5063140;28;20706;-63
2023/07/12 03:09:06;;;;;;;;;;;;;;;;;;5063622;28;19924;-63
2023/07/12 03:11:32;;;;;;;;;;;;;;;;;;5045661;28;19928;-62
2023/07/12 03:13:58;;;;;;;;;;;;;;;;;;5063387;28;19960;-63
2023/07/12 03:16:24;;;;;;;;;;;;;;;;;;5063125;28;19951;-63
2023/07/12 03:18:50;;;;;;;;;;;;;;;;;;5063199;28;20060;-63
2023/07/12 03:21:16;;;;;;;;;;;;;;;;;;5062454;28;19925;-62
2023/07/12 03:23:42;;;;;;;;;;;;;;;;;;5063440;28;19925;-63
2023/07/12 03:26:08;;;;;;;;;;;;;;;;;;5063579;28;20435;-62
2023/07/12 03:28:34;;;;;;;;;;;;;;;;;;5062948;28;19921;-62
2023/07/12 03:31:00;;;;;;;;;;;;;;;;;;5062981;28;19928;-63
2023/07/12 03:33:26;;;;;;;;;;;;;;;;;;5062516;28;19931;-63
2023/07/12 03:35:52;;;;;;;;;;;;;;;;;;5062890;28;20068;-63
2023/07/12 03:38:17;;;;;;;;;;;;;;;;;;5063691;28;20412;-63
2023/07/12 03:40:43;;;;;;;;;;;;;;;;;;5063232;28;19929;-62
2023/07/12 03:43:09;;;;;;;;;;;;;;;;;;5063007;28;20429;-62
2023/07/12 03:45:35;;;;;;;;;;;;;;;;;;5063072;28;20053;-63
2023/07/12 03:48:01;;;;;;;;;;;;;;;;;;5062255;28;20019;-63
2023/07/12 03:50:27;;;;;;;;;;;;;;;;;;5062527;28;19964;-63
2023/07/12 03:52:53;;;;;;;;;;;;;;;;;;5062997;28;19999;-63
2023/07/12 03:55:19;;;;;;;;;;;;;;;;;;5067013;28;19987;-63
2023/07/12 03:57:45;;;;;;;;;;;;;;;;;;5067242;28;19986;-63
2023/07/12 04:00:12;;;;;;;;;;;;;;;;;;5066817;28;19973;-62
2023/07/12 04:02:38;;;;;;;;;;;;;;;;;;5066679;28;19993;-63
2023/07/12 04:05:04;;;;;;;;;;;;;;;;;;5066952;28;20499;-63
2023/07/12 04:07:30;;;;;;;;;;;;;;;;;;5066755;28;19928;-63
2023/07/12 04:09:56;;;;;;;;;;;;;;;;;;5067149;28;19924;-63
2023/07/12 04:12:22;;;;;;;;;;;;;;;;;;5066313;28;19931;-63
2023/07/12 04:14:48;;;;;;;;;;;;;;;;;;5067523;28;19924;-62
2023/07/12 04:17:14;;;;;;;;;;;;;;;;;;5065966;28;19920;-62
2023/07/12 04:19:40;;;;;;;;;;;;;;;;;;5066650;28;19932;-62
2023/07/12 04:22:06;;;;;;;;;;;;;;;;;;5066252;28;19924;-62
2023/07/12 04:24:32;;;;;;;;;;;;;;;;;;5066562;28;19971;-62
2023/07/12 04:26:59;;;;;;;;;;;;;;;;;;5067005;28;19980;-62
2023/07/12 04:29:25;;;;;;;;;;;;;;;;;;5066206;28;20380;-63
2023/07/12 04:31:50;;;;;;;;;;;;;;;;;;5066348;28;20011;-63
2023/07/12 04:34:16;;;;;;;;;;;;;;;;;;5048354;28;19997;-62
2023/07/12 04:36:42;;;;;;;;;;;;;;;;;;5065377;28;19928;-62
2023/07/12 04:39:08;;;;;;;;;;;;;;;;;;5066539;28;19951;-63
2023/07/12 04:41:34;;;;;;;;;;;;;;;;;;5066138;28;19932;-63
2023/07/12 04:44:01;;;;;;;;;;;;;;;;;;5066157;28;20101;-64
2023/07/12 04:46:27;;;;;;;;;;;;;;;;;;5065939;28;19925;-63
2023/07/12 04:48:53;;;;;;;;;;;;;;;;;;5066012;28;19931;-64
2023/07/12 04:51:19;;;;;;;;;;;;;;;;;;5065847;28;19943;-63
2023/07/12 04:53:47;;;;;;;;;;;;;;;;;;5066504;28;19924;-62
2023/07/12 04:56:13;;;;;;;;;;;;;;;;;;5065881;28;20473;-63
2023/07/12 04:58:39;;;;;;;;;;;;;;;;;;5065040;28;19932;-63
2023/07/12 05:01:05;;;;;;;;;;;;;;;;;;5065911;28;19928;-63
2023/07/12 05:03:32;;;;;;;;;;;;;;;;;;5066435;28;19928;-64
2023/07/12 05:05:57;;;;;;;;;;;;;;;;;;5063750;28;19925;-63
2023/07/12 05:08:23;;;;;;;;;;;;;;;;;;5060616;28;20386;-64
2023/07/12 05:10:49;;;;;;;;;;;;;;;;;;5063219;28;19939;-63
2023/07/12 05:13:15;;;;;;;;;;;;;;;;;;5062815;28;19939;-64
2023/07/12 05:15:41;;;;;;;;;;;;;;;;;;5045131;28;20358;-64
2023/07/12 05:18:07;;;;;;;;;;;;;;;;;;5063273;28;19975;-64
2023/07/12 05:20:33;;;;;;;;;;;;;;;;;;5062045;28;19938;-64
2023/07/12 05:22:59;;;;;;;;;;;;;;;;;;5063028;28;19933;-65
2023/07/12 05:25:25;;;;;;;;;;;;;;;;;;5063246;28;20487;-63
2023/07/12 05:27:51;;;;;;;;;;;;;;;;;;5062223;28;19925;-70
2023/07/12 05:30:17;;;;;;;;;;;;;;;;;;5062963;28;19973;-63
2023/07/12 05:32:43;;;;;;;;;;;;;;;;;;5062617;28;19935;-63
2023/07/12 05:35:09;;;;;;;;;;;;;;;;;;5062311;28;19925;-63
2023/07/12 05:37:35;;;;;;;;;;;;;;;;;;5062958;28;20017;-63
2023/07/12 05:40:00;;;;;;;;;;;;;;;;;;5062720;28;19971;-62
2023/07/12 05:42:26;;;;;;;;;;;;;;;;;;5062359;28;19990;-62
2023/07/12 05:44:52;;;;;;;;;;;;;;;;;;5062434;28;20033;-63
2023/07/12 05:47:18;;;;;;;;;;;;;;;;;;5063756;28;20373;-63
2023/07/12 05:49:44;;;;;;;;;;;;;;;;;;5062779;28;20027;-63
2023/07/12 05:52:10;;;;;;;;;;;;;;;;;;5060630;28;19924;-63
2023/07/12 05:54:36;;;;;;;;;;;;;;;;;;5045071;28;19982;-63
2023/07/12 05:57:02;;;;;;;;;;;;;;;;;;5061694;28;19924;-64
2023/07/12 05:59:28;;;;;;;;;;;;;;;;;;5062042;28;20421;-63
2023/07/12 06:01:54;;;;;;;;;;;;;;;;;;5060364;28;19932;-63
2023/07/12 06:04:20;;;;;;;;;;;;;;;;;;5059445;28;19931;-63
2023/07/12 06:06:46;;;;;;;;;;;;;;;;;;5064004;28;19924;-63
2023/07/12 06:09:12;;;;;;;;;;;;;;;;;;5064182;28;20011;-63
2023/07/12 06:11:38;;;;;;;;;;;;;;;;;;5064214;28;20561;-63
2023/07/12 06:14:04;;;;;;;;;;;;;;;;;;5063857;28;20396;-64
2023/07/12 06:16:30;;;;;;;;;;;;;;;;;;5063121;28;19930;-64
2023/07/12 06:18:56;;;;;;;;;;;;;;;;;;5063577;28;19932;-64
2023/07/12 06:21:22;;;;;;;;;;;;;;;;;;5062401;28;20496;-64
2023/07/12 06:23:49;;;;;;;;;;;;;;;;;;5063413;28;19924;-63
2023/07/12 06:26:15;;;;;;;;;;;;;;;;;;5061790;28;19929;-63
2023/07/12 06:28:41;;;;;;;;;;;;;;;;;;5063400;28;19978;-63
2023/07/12 06:31:07;;;;;;;;;;;;;;;;;;5062952;28;19970;-63
2023/07/12 06:33:33;;;;;;;;;;;;;;;;;;5034821;28;19929;-63
2023/07/12 06:35:58;;;;;;;;;;;;;;;;;;5038171;28;20033;-63
2023/07/12 06:38:24;;;;;;;;;;;;;;;;;;5062321;28;20008;-64
2023/07/12 06:40:50;;;;;;;;;;;;;;;;;;5062276;28;19971;-63
2023/07/12 06:43:16;;;;;;;;;;;;;;;;;;5062642;28;19930;-63
2023/07/12 06:45:42;;;;;;;;;;;;;;;;;;5064038;28;20380;-64
2023/07/12 06:48:08;;;;;;;;;;;;;;;;;;5063859;28;20027;-63
2023/07/12 06:50:34;;;;;;;;;;;;;;;;;;5063454;28;20019;-63
2023/07/12 06:53:00;;;;;;;;;;;;;;;;;;5063501;28;19975;-63
2023/07/12 06:55:26;;;;;;;;;;;;;;;;;;5062991;28;20342;-64
2023/07/12 06:57:52;;;;;;;;;;;;;;;;;;5064251;28;19924;-63
2023/07/12 07:00:18;;;;;;;;;;;;;;;;;;5064046;28;19925;-63
2023/07/12 07:02:43;;;;;;;;;;;;;;;;;;5063672;28;19924;-63
2023/07/12 07:05:09;;;;;;;;;;;;;;;;;;5062593;28;20092;-63
2023/07/12 07:07:35;;;;;;;;;;;;;;;;;;5063139;28;20385;-63
2023/07/12 07:10:01;;;;;;;;;;;;;;;;;;5062980;28;19924;-64
2023/07/12 07:12:28;;;;;;;;;;;;;;;;;;5063444;28;19924;-63
2023/07/12 07:14:54;;;;;;;;;;;;;;;;;;5063841;28;20037;-64
2023/07/12 07:17:20;;;;;;;;;;;;;;;;;;5064003;28;20589;-63
2023/07/12 07:19:46;;;;;;;;;;;;;;;;;;5062761;28;19925;-64
2023/07/12 07:22:12;;;;;;;;;;;;;;;;;;5062251;28;20282;-63
2023/07/12 07:24:38;;;;;;;;;;;;;;;;;;5063613;28;19971;-63
2023/07/12 07:27:04;;;;;;;;;;;;;;;;;;5063875;28;20202;-63
2023/07/12 07:29:30;;;;;;;;;;;;;;;;;;5062065;28;20340;-63
2023/07/12 07:31:56;;;;;;;;;;;;;;;;;;5063379;28;20011;-63
2023/07/12 07:34:22;;;;;;;;;;;;;;;;;;5063596;28;19932;-63
2023/07/12 07:36:48;;;;;;;;;;;;;;;;;;5062046;28;19924;-63
2023/07/12 07:39:14;;;;;;;;;;;;;;;;;;5063508;28;19928;-63
2023/07/12 07:41:40;;;;;;;;;;;;;;;;;;5062312;28;20370;-63
2023/07/12 07:44:06;;;;;;;;;;;;;;;;;;5063625;28;19931;-63
2023/07/12 07:46:32;;;;;;;;;;;;;;;;;;5062673;28;19931;-64
2023/07/12 07:48:58;;;;;;;;;;;;;;;;;;5063412;28;19925;-64
2023/07/12 07:51:24;;;;;;;;;;;;;;;;;;5061808;28;20014;-64
2023/07/12 07:53:50;;;;;;;;;;;;;;;;;;5063463;28;19937;-63
2023/07/12 07:56:16;;;;;;;;;;;;;;;;;;5063286;28;19924;-63
2023/07/12 07:58:42;;;;;;;;;;;;;;;;;;5062727;28;19925;-63
2023/07/12 08:01:08;;;;;;;;;;;;;;;;;;5062952;28;19990;-63
2023/07/12 08:03:34;;;;;;;;;;;;;;;;;;5062777;28;19928;-63
2023/07/12 08:06:00;;;;;;;;;;;;;;;;;;5061712;28;19924;-63
2023/07/12 08:08:27;;;;;;;;;;;;;;;;;;5063417;28;19929;-64
2023/07/12 08:10:53;;;;;;;;;;;;;;;;;;5063001;28;19985;-64
2023/07/12 08:13:19;;;;;;;;;;;;;;;;;;5062894;28;19964;-63
2023/07/12 08:15:45;;;;;;;;;;;;;;;;;;5062990;28;19964;-63
2023/07/12 08:18:12;;;;;;;;;;;;;;;;;;5061851;28;20192;-63
2023/07/12 08:20:38;;;;;;;;;;;;;;;;;;5044252;28;19928;-63
2023/07/12 08:23:04;;;;;;;;;;;;;;;;;;5062340;28;19921;-63
2023/07/12 08:25:30;;;;;;;;;;;;;;;;;;5063247;28;19932;-63
2023/07/12 08:27:56;;;;;;;;;;;;;;;;;;5062408;28;20282;-64
2023/07/12 08:30:22;;;;;;;;;;;;;;;;;;5061699;28;19924;-63
2023/07/12 08:32:48;;;;;;;;;;;;;;;;;;5063094;28;19970;-63
2023/07/12 08:35:14;;;;;;;;;;;;;;;;;;5061052;28;19985;-63
2023/07/12 08:37:40;;;;;;;;;;;;;;;;;;5062777;28;20459;-63
2023/07/12 08:40:06;;;;;;;;;;;;;;;;;;5063965;28;19924;-63
2023/07/12 08:42:32;;;;;;;;;;;;;;;;;;5064440;28;19981;-63
2023/07/12 08:44:58;;;;;;;;;;;;;;;;;;5064104;28;19924;-63
2023/07/12 08:47:24;;;;;;;;;;;;;;;;;;5066069;28;20015;-63
2023/07/12 08:49:50;;;;;;;;;;;;;;;;;;5065423;28;20008;-63
2023/07/12 08:52:16;;;;;;;;;;;;;;;;;;5065428;28;19986;-63
2023/07/12 08:54:43;;;;;;;;;;;;;;;;;;5065719;28;20692;-63
2023/07/12 08:57:09;;;;;;;;;;;;;;;;;;5066408;28;19950;-63
2023/07/12 08:59:35;;;;;;;;;;;;;;;;;;5066105;28;19924;-63
2023/07/12 09:02:01;;;;;;;;;;;;;;;;;;5065961;28;19985;-63
2023/07/12 09:04:27;;;;;;;;;;;;;;;;;;5065152;28;19924;-63
2023/07/12 09:06:53;;;;;;;;;;;;;;;;;;5065585;28;19925;-64
2023/07/12 09:09:19;;;;;;;;;;;;;;;;;;5066590;28;19931;-63
2023/07/12 09:11:45;;;;;;;;;;;;;;;;;;5065333;28;19931;-63
2023/07/12 09:14:11;;;;;;;;;;;;;;;;;;5066029;28;19928;-63
2023/07/12 09:16:37;;;;;;;;;;;;;;;;;;5065879;28;20271;-63
2023/07/12 09:19:03;;;;;;;;;;;;;;;;;;5065118;28;19925;-63
2023/07/12 09:21:32;;;;;;;;;;;;;;;;;;5064625;28;20310;-63
2023/07/12 09:23:58;;;;;;;;;;;;;;;;;;5065738;28;19999;-63
2023/07/12 09:26:24;;;;;;;;;;;;;;;;;;5065682;28;20023;-64
2023/07/12 09:28:50;;;;;;;;;;;;;;;;;;5065860;28;20370;-63
2023/07/12 09:31:16;;;;;;;;;;;;;;;;;;5065537;28;19932;-63
2023/07/12 09:33:42;;;;;;;;;;;;;;;;;;5065339;28;19925;-63
2023/07/12 09:36:08;;;;;;;;;;;;;;;;;;5064409;28;19920;-63
2023/07/12 09:38:34;;;;;;;;;;;;;;;;;;5065719;28;19925;-63
2023/07/12 09:41:00;;;;;;;;;;;;;;;;;;5065463;28;20322;-63
2023/07/12 09:43:26;;;;;;;;;;;;;;;;;;5065290;28;20460;-62
2023/07/12 09:45:52;;;;;;;;;;;;;;;;;;5065320;28;19932;-62
2023/07/12 09:48:18;;;;;;;;;;;;;;;;;;5065082;28;19924;-62
2023/07/12 09:50:44;;;;;;;;;;;;;;;;;;5064595;28;20385;-63
2023/07/12 09:53:10;;;;;;;;;;;;;;;;;;5064595;28;19931;-63
2023/07/12 09:55:36;;;;;;;;;;;;;;;;;;5065282;28;19925;-63
2023/07/12 09:58:02;;;;;;;;;;;;;;;;;;5065360;28;19928;-63
2023/07/12 10:00:28;;;;;;;;;;;;;;;;;;5064375;28;20064;-63
2023/07/12 10:02:54;;;;;;;;;;;;;;;;;;5064871;28;19936;-64
2023/07/12 10:05:19;;;;;;;;;;;;;;;;;;5064738;28;19925;-63
2023/07/12 10:07:45;;;;;;;;;;;;;;;;;;5065108;28;19999;-63
2023/07/12 10:10:11;;;;;;;;;;;;;;;;;;5065033;28;19938;-63
2023/07/12 10:12:37;;;;;;;;;;;;;;;;;;5064293;28;20407;-64
2023/07/12 10:15:03;;;;;;;;;;;;;;;;;;5064262;28;20424;-63
2023/07/12 10:17:29;;;;;;;;;;;;;;;;;;5064639;28;19928;-64
2023/07/12 10:19:56;;;;;;;;;;;;;;;;;;5064215;28;19985;-64
2023/07/12 10:22:22;;;;;;;;;;;;;;;;;;5052956;28;20383;-64
2023/07/12 10:24:48;;;;;;;;;;;;;;;;;;5064147;28;19925;-64
2023/07/12 10:27:14;;;;;;;;;;;;;;;;;;5064541;28;20377;-64
2023/07/12 10:29:39;;;;;;;;;;;;;;;;;;5063350;28;19982;-64
2023/07/12 10:32:05;;;;;;;;;;;;;;;;;;5064688;28;19971;-64
2023/07/12 10:34:31;;;;;;;;;;;;;;;;;;5063995;28;20017;-64
2023/07/12 10:36:57;;;;;;;;;;;;;;;;;;5064284;28;20333;-64
2023/07/12 10:39:23;;;;;;;;;;;;;;;;;;5064580;28;19924;-65
2023/07/12 10:41:49;;;;;;;;;;;;;;;;;;5064198;28;19967;-64
2023/07/12 10:44:15;;;;;;;;;;;;;;;;;;5062908;28;19928;-64
2023/07/12 10:46:41;;;;;;;;;;;;;;;;;;5064310;28;19929;-64
2023/07/12 10:49:07;;;;;;;;;;;;;;;;;;5063988;28;20019;-65
2023/07/12 10:51:33;;;;;;;;;;;;;;;;;;5063775;28;20435;-64
2023/07/12 10:53:59;;;;;;;;;;;;;;;;;;5062378;28;19924;-64
2023/07/12 10:56:25;;;;;;;;;;;;;;;;;;5063943;28;19928;-64
2023/07/12 10:58:50;;;;;;;;;;;;;;;;;;5063739;28;20003;-64
2023/07/12 11:01:16;;;;;;;;;;;;;;;;;;5063685;28;20393;-64
2023/07/12 11:03:47;;;;;;;;;;;;;;;;;;5062792;28;19925;-64
2023/07/12 11:06:13;;;;;;;;;;;;;;;;;;5062581;28;20486;-64
2023/07/12 11:08:39;;;;;;;;;;;;;;;;;;5063370;28;20031;-64
2023/07/12 11:11:05;;;;;;;;;;;;;;;;;;5062780;28;19925;-63
2023/07/12 11:13:31;;;;;;;;;;;;;;;;;;5063057;28;19974;-64
2023/07/12 11:15:57;;;;;;;;;;;;;;;;;;5063454;28;19970;-64
2023/07/12 11:18:24;;;;;;;;;;;;;;;;;;5062955;28;19932;-64
2023/07/12 11:20:50;;;;;;;;;;;;;;;;;;5043693;28;19932;-64
2023/07/12 11:23:16;;;;;;;;;;;;;;;;;;5063386;28;19924;-64
2023/07/12 11:25:42;;;;;;;;;;;;;;;;;;5058747;28;20326;-64
2023/07/12 11:28:08;;;;;;;;;;;;;;;;;;5063493;28;19931;-64
2023/07/12 11:30:34;;;;;;;;;;;;;;;;;;5062522;28;19928;-64
2023/07/12 11:32:59;;;;;;;;;;;;;;;;;;5063190;28;20007;-64
2023/07/12 11:35:26;;;;;;;;;;;;;;;;;;5062413;28;20014;-63
2023/07/12 11:37:51;;;;;;;;;;;;;;;;;;5063097;28;19928;-64
2023/07/12 11:40:17;;;;;;;;;;;;;;;;;;5059813;28;19925;-63
2023/07/12 11:42:43;;;;;;;;;;;;;;;;;;5062604;28;20141;-62
2023/07/12 11:45:11;;;;;;;;;;;;;;;;;;5062912;28;19981;-65
2023/07/12 11:47:39;;;;;;;;;;;;;;;;;;5066987;28;19971;-63
2023/07/12 11:50:04;;;;;;;;;;;;;;;;;;5062201;28;19983;-63
2023/07/12 11:52:30;;;;;;;;;;;;;;;;;;5061659;28;19924;-63
2023/07/12 11:54:57;;;;;;;;;;;;;;;;;;5062794;28;19956;-64
2023/07/12 11:57:23;;;;;;;;;;;;;;;;;;5045772;28;19925;-63
2023/07/12 11:59:49;;;;;;;;;;;;;;;;;;5063064;28;20440;-63
2023/07/12 12:02:16;;;;;;;;;;;;;;;;;;5063255;28;20534;-63
2023/07/12 12:04:41;;;;;;;;;;;;;;;;;;5062546;28;20263;-63
2023/07/12 12:07:07;;;;;;;;;;;;;;;;;;5062100;28;19924;-63
2023/07/12 12:09:33;;;;;;;;;;;;;;;;;;5062863;28;19978;-63
2023/07/12 12:11:59;;;;;;;;;;;;;;;;;;5061429;28;20557;-63
2023/07/12 12:14:25;;;;;;;;;;;;;;;;;;5062029;28;19954;-64
2023/07/12 12:16:52;;;;;;;;;;;;;;;;;;5065953;28;19955;-63
2023/07/12 12:19:18;;;;;;;;;;;;;;;;;;5064896;28;20085;-63
2023/07/12 12:21:44;;;;;;;;;;;;;;;;;;5064884;28;19998;-63
2023/07/12 12:24:10;;;;;;;;;;;;;;;;;;5065318;28;20408;-63
2023/07/12 12:26:37;;;;;;;;;;;;;;;;;;5066979;28;19968;-63
2023/07/12 12:29:03;;;;;;;;;;;;;;;;;;5067007;28;19978;-62
2023/07/12 12:31:29;;;;;;;;;;;;;;;;;;5066902;28;20036;-63
2023/07/12 12:33:55;;;;;;;;;;;;;;;;;;5065806;28;20408;-63
2023/07/12 12:36:21;;;;;;;;;;;;;;;;;;5066565;28;19982;-63
2023/07/12 12:38:47;;;;;;;;;;;;;;;;;;5066489;28;20070;-63
2023/07/12 12:41:13;;;;;;;;;;;;;;;;;;5066064;28;19939;-63
2023/07/12 12:43:39;;;;;;;;;;;;;;;;;;5066695;28;19920;-63
2023/07/12 12:46:05;;;;;;;;;;;;;;;;;;5066437;28;20088;-63
2023/07/12 12:48:31;;;;;;;;;;;;;;;;;;5065501;28;20515;-63
2023/07/12 12:50:59;;;;;;;;;;;;;;;;;;5065548;28;19967;-64
2023/07/12 12:53:24;;;;;;;;;;;;;;;;;;5066068;28;19978;-64
2023/07/12 12:55:50;;;;;;;;;;;;;;;;;;5066787;28;19974;-64
2023/07/12 12:58:16;;;;;;;;;;;;;;;;;;5066537;28;20492;-64
2023/07/12 13:00:44;;;;;;;;;;;;;;;;;;5065903;28;19981;-64
2023/07/12 13:03:10;;;;;;;;;;;;;;;;;;5065970;28;20370;-63
2023/07/12 13:05:36;;;;;;;;;;;;;;;;;;5064980;28;19939;-63
2023/07/12 13:08:04;;;;;;;;;;;;;;;;;;5066172;28;19920;-63
2023/07/12 13:10:29;;;;;;;;;;;;;;;;;;5066075;28;19924;-63
2023/07/12 13:12:55;;;;;;;;;;;;;;;;;;5065574;28;19931;-64
2023/07/12 13:15:21;;;;;;;;;;;;;;;;;;5066075;28;19928;-64
2023/07/12 13:17:47;;;;;;;;;;;;;;;;;;5047973;28;19924;-64
2023/07/12 13:20:13;;;;;;;;;;;;;;;;;;5065177;28;19936;-64
2023/07/12 13:22:39;;;;;;;;;;;;;;;;;;5065310;28;20294;-64
2023/07/12 13:25:05;;;;;;;;;;;;;;;;;;5065547;28;20432;-64
2023/07/12 13:27:31;;;;;;;;;;;;;;;;;;5065192;28;19977;-63
2023/07/12 13:29:57;;;;;;;;;;;;;;;;;;5064867;28;21596;-64
2023/07/12 13:32:23;;;;;;;;;;;;;;;;;;5065716;28;19925;-64
2023/07/12 13:34:49;;;;;;;;;;;;;;;;;;5064646;28;19932;-62
2023/07/12 13:37:15;;;;;;;;;;;;;;;;;;5065623;28;19954;-63
2023/07/12 13:39:41;;;;;;;;;;;;;;;;;;5065572;28;19932;-63
2023/07/12 13:42:07;;;;;;;;;;;;;;;;;;5065181;28;19986;-63
2023/07/12 13:44:33;;;;;;;;;;;;;;;;;;5064570;28;20448;-63
2023/07/12 13:46:59;;;;;;;;;;;;;;;;;;5065281;28;19933;-63
2023/07/12 13:49:25;;;;;;;;;;;;;;;;;;5063956;28;19924;-64
2023/07/12 13:51:51;;;;;;;;;;;;;;;;;;5064917;28;19929;-63
2023/07/12 13:54:17;;;;;;;;;;;;;;;;;;5064790;28;19924;-63
2023/07/12 13:56:44;;;;;;;;;;;;;;;;;;5065097;28;19950;-63
2023/07/12 13:59:10;;;;;;;;;;;;;;;;;;5064589;28;20332;-63
2023/07/12 14:01:36;;;;;;;;;;;;;;;;;;5064956;28;19925;-63
2023/07/12 14:04:02;;;;;;;;;;;;;;;;;;5064083;28;19924;-63
2023/07/12 14:06:28;;;;;;;;;;;;;;;;;;5064610;28;20289;-63
2023/07/12 14:08:54;;;;;;;;;;;;;;;;;;5065022;28;19972;-65
2023/07/12 14:11:20;;;;;;;;;;;;;;;;;;5065031;28;20382;-63
2023/07/12 14:13:46;;;;;;;;;;;;;;;;;;5063884;28;19924;-63
2023/07/12 14:16:12;;;;;;;;;;;;;;;;;;5064670;28;19924;-63
2023/07/12 14:18:38;;;;;;;;;;;;;;;;;;5063828;28;19977;-63
2023/07/12 14:21:05;;;;;;;;;;;;;;;;;;5064569;28;20055;-63
2023/07/12 14:23:31;;;;;;;;;;;;;;;;;;5064025;28;19935;-64
2023/07/12 14:25:57;;;;;;;;;;;;;;;;;;5063980;28;19925;-64
2023/07/12 14:28:23;;;;;;;;;;;;;;;;;;5064857;28;19931;-63
2023/07/12 14:30:49;;;;;;;;;;;;;;;;;;5064595;28;20030;-63
2023/07/12 14:33:15;;;;;;;;;;;;;;;;;;5064690;28;20572;-64
2023/07/12 14:35:41;;;;;;;;;;;;;;;;;;5063328;28;19928;-63
2023/07/12 14:38:07;;;;;;;;;;;;;;;;;;5063783;28;20073;-63
2023/07/12 14:40:33;;;;;;;;;;;;;;;;;;5063606;28;19924;-64
2023/07/12 14:42:59;;;;;;;;;;;;;;;;;;5063883;28;19925;-64
2023/07/12 14:45:26;;;;;;;;;;;;;;;;;;5064511;28;19955;-64
2023/07/12 14:47:52;;;;;;;;;;;;;;;;;;5064290;28;20405;-64
2023/07/12 14:50:20;;;;;;;;;;;;;;;;;;5063100;28;19925;-64
2023/07/12 14:52:46;;;;;;;;;;;;;;;;;;5063541;28;19928;-63
2023/07/12 14:55:12;;;;;;;;;;;;;;;;;;5063568;28;20420;-64
2023/07/12 14:57:37;;;;;;;;;;;;;;;;;;5063911;28;19925;-63
2023/07/12 15:00:05;;;;;;;;;;;;;;;;;;5063734;28;20623;-63
2023/07/12 15:02:34;;;;;;;;;;;;;;;;;;5041492;28;19928;-64
2023/07/12 15:04:59;;;;;;;;;;;;;;;;;;5062941;28;20019;-64
2023/07/12 15:07:25;;;;;;;;;;;;;;;;;;5063451;28;20007;-65
2023/07/12 15:09:51;;;;;;;;;;;;;;;;;;5041049;28;19929;-63
2023/07/12 15:12:17;;;;;;;;;;;;;;;;;;5063479;28;19928;-63
2023/07/12 15:14:43;;;;;;;;;;;;;;;;;;5064060;28;20014;-63
2023/07/12 15:17:09;;;;;;;;;;;;;;;;;;5056313;28;20008;-64
2023/07/12 15:19:35;;;;;;;;;;;;;;;;;;5063372;28;19929;-64
2023/07/12 15:22:02;;;;;;;;;;;;;;;;;;5062956;28;19931;-62
2023/07/12 15:24:28;;;;;;;;;;;;;;;;;;5045322;28;19932;-64
2023/07/12 15:26:54;;;;;;;;;;;;;;;;;;5063871;28;19925;-65
2023/07/12 15:29:21;;;;;;;;;;;;;;;;;;5063299;28;19925;-64
2023/07/12 15:31:47;;;;;;;;;;;;;;;;;;5063464;28;19932;-64
2023/07/12 15:34:13;;;;;;;;;;;;;;;;;;5062098;28;19924;-63
2023/07/12 15:36:39;;;;;;;;;;;;;;;;;;5063150;28;19924;-63
2023/07/12 15:39:05;;;;;;;;;;;;;;;;;;5063399;28;19931;-63
2023/07/12 15:41:31;;;;;;;;;;;;;;;;;;5062471;28;19928;-63
2023/07/12 15:43:58;;;;;;;;;;;;;;;;;;5063376;28;19932;-63
2023/07/12 15:46:25;;;;;;;;;;;;;;;;;;5063294;28;20378;-64
2023/07/12 15:48:52;;;;;;;;;;;;;;;;;;5062003;28;20378;-63
2023/07/12 15:51:18;;;;;;;;;;;;;;;;;;5062668;28;19932;-63
2023/07/12 15:53:44;;;;;;;;;;;;;;;;;;5063414;28;20043;-63
2023/07/12 15:56:10;;;;;;;;;;;;;;;;;;5063516;28;19931;-63
2023/07/12 15:58:36;;;;;;;;;;;;;;;;;;5062932;28;20015;-63
2023/07/12 16:01:02;;;;;;;;;;;;;;;;;;5062707;28;19991;-63
2023/07/12 16:03:28;;;;;;;;;;;;;;;;;;5061785;28;20354;-63
2023/07/12 16:05:54;;;;;;;;;;;;;;;;;;5040831;28;19932;-65
2023/07/12 16:08:20;;;;;;;;;;;;;;;;;;5063160;28;19924;-64
2023/07/12 16:10:47;;;;;;;;;;;;;;;;;;5062893;28;19925;-64
2023/07/12 16:13:13;;;;;;;;;;;;;;;;;;5062656;28;19931;-64
2023/07/12 16:15:39;;;;;;;;;;;;;;;;;;5062145;28;19931;-63
2023/07/12 16:18:05;;;;;;;;;;;;;;;;;;5062400;28;20497;-63
2023/07/12 16:20:30;;;;;;;;;;;;;;;;;;5062018;28;20649;-63
2023/07/12 16:22:56;;;;;;;;;;;;;;;;;;5062756;28;19916;-63
2023/07/12 16:25:22;;;;;;;;;;;;;;;;;;5062997;28;19926;-63
2023/07/12 16:27:48;;;;;;;;;;;;;;;;;;5062462;28;19924;-63
2023/07/12 16:30:15;;;;;;;;;;;;;;;;;;5061723;28;19924;-64
2023/07/12 16:32:42;;;;;;;;;;;;;;;;;;5063107;28;19951;-64
2023/07/12 16:35:08;;;;;;;;;;;;;;;;;;5062339;28;19916;-64
2023/07/12 16:37:33;;;;;;;;;;;;;;;;;;5062620;28;19931;-64